»·PEaware :: N670MA KPSP-KBWC

N670MA :: KPSP-KBWC

FLIGHT INFORMATION

Flight Status: Arrived
Operator: Privately registered:
United States
More flights under this callsign
Pilot: Victor C. (32144)
Aircraft: CESSNA 206 STATIONAIR
(C206)
More flights by this aircraft type
Origin: KPSP Palm Springs Intl
United States
Destination: KBWC Brawley Mun
United States
More flights between these airports :: More routes between these airports
Route:
File this flight plan on PilotEdge
Remarks:
Altitude:
(Current/Filed)
7,500ft
Speed:
(Current/Filed)
150kts
Departed: 13-Jan-21 01:11 PM
Arrived: 13-Jan-21 01:46 PM
Distance/Time
Traveled:
71nm/0:35
Distance/Time
To Go:
Arrived

Flight Plot

Page will automatically refresh every two minutes.

Flight plan parsing failed; only flown route is shown


Map Options




Map Legend


Flown Route
Filed Route
Departure Airport
Arrival Airport
Navaid (VOR, NDB)
Fix

Horizontal Profiles

Position Reports

Time Latitude Longitude Heading Altitude Ground
Speed
13-Jan-21 12:47 33.825089 -116.509396 358 425ft 0kts
13-Jan-21 12:48 33.825089 -116.509396 358 425ft 0kts
13-Jan-21 12:49 33.825089 -116.509396 358 425ft 0kts
13-Jan-21 12:50 33.825089 -116.509396 358 425ft 0kts
13-Jan-21 12:51 33.825089 -116.509396 358 425ft 0kts
13-Jan-21 12:52 33.825089 -116.509396 358 425ft 0kts
13-Jan-21 12:53 33.825089 -116.509396 358 425ft 0kts
13-Jan-21 12:54 33.825089 -116.509396 358 425ft 0kts
13-Jan-21 12:55 33.825089 -116.509396 358 425ft 0kts
13-Jan-21 12:56 33.825089 -116.509396 358 425ft 0kts
13-Jan-21 12:57 33.825089 -116.509396 358 425ft 0kts
13-Jan-21 12:58 33.825128 -116.509397 0 425ft 1kts
13-Jan-21 12:59 33.825366 -116.507700 89 423ft 5kts
13-Jan-21 13:00 33.824024 -116.505545 141 418ft 15kts
13-Jan-21 13:01 33.822425 -116.503247 141 412ft 13kts
13-Jan-21 13:02 33.821139 -116.502104 143 408ft 12kts
13-Jan-21 13:03 33.818182 -116.499680 193 400ft 1kts
13-Jan-21 13:04 33.818128 -116.499621 31 400ft 0kts
13-Jan-21 13:05 33.818128 -116.499621 31 400ft 0kts
13-Jan-21 13:06 33.818128 -116.499621 31 400ft 0kts
13-Jan-21 13:07 33.818528 -116.498970 84 401ft 0kts
13-Jan-21 13:08 33.818528 -116.498970 84 401ft 0kts
13-Jan-21 13:09 33.818534 -116.498913 81 401ft 3kts
13-Jan-21 13:10 33.830489 -116.508803 323 617ft 93kts
13-Jan-21 13:11 33.853417 -116.526308 332 1261ft 95kts
13-Jan-21 13:12 33.881000 -116.536431 28 1884ft 121kts
13-Jan-21 13:13 33.869318 -116.497811 131 1825ft 147kts
13-Jan-21 13:14 33.842696 -116.462840 134 2214ft 135kts
13-Jan-21 13:15 33.812512 -116.430843 141 2923ft 155kts
13-Jan-21 13:16 33.776454 -116.400965 148 3724ft 159kts
13-Jan-21 13:17 33.737061 -116.376302 155 4524ft 160kts
13-Jan-21 13:18 33.706052 -116.339381 127 5309ft 159kts
13-Jan-21 13:19 33.677937 -116.297777 127 6108ft 160kts
13-Jan-21 13:20 33.649521 -116.256468 128 6907ft 160kts
13-Jan-21 13:21 33.621279 -116.218825 129 7440ft 142kts
13-Jan-21 13:22 33.592968 -116.181506 129 7454ft 155kts
13-Jan-21 13:23 33.562656 -116.143883 133 7455ft 158kts
13-Jan-21 13:24 33.530875 -116.107397 135 7457ft 158kts
13-Jan-21 13:25 33.497572 -116.072493 135 7458ft 159kts
13-Jan-21 13:26 33.464322 -116.037575 135 7456ft 159kts
13-Jan-21 13:27 33.430961 -116.002565 135 7454ft 159kts
13-Jan-21 13:28 33.397548 -115.967477 135 7454ft 159kts
13-Jan-21 13:29 33.364307 -115.932488 135 7454ft 159kts
13-Jan-21 13:30 33.331700 -115.897925 135 7270ft 152kts
13-Jan-21 13:31 33.300512 -115.864674 135 6970ft 149kts
13-Jan-21 13:32 33.269487 -115.831439 135 6635ft 151kts
13-Jan-21 13:33 33.238243 -115.797778 135 6239ft 151kts
13-Jan-21 13:34 33.208160 -115.765194 135 5793ft 139kts
13-Jan-21 13:35 33.180319 -115.735040 135 5093ft 133kts
13-Jan-21 13:36 33.153126 -115.705291 135 4393ft 131kts
13-Jan-21 13:37 33.126551 -115.676178 135 3692ft 132kts
13-Jan-21 13:38 33.098431 -115.644862 135 2699ft 141kts
13-Jan-21 13:39 33.073140 -115.615618 133 1958ft 114kts
13-Jan-21 13:40 33.051976 -115.590033 133 1353ft 104kts
13-Jan-21 13:42 33.032031 -115.565710 132 1153ft 108kts
13-Jan-21 13:43 33.009956 -115.539178 134 1045ft 100kts
13-Jan-21 13:44 32.999467 -115.511138 83 544ft 91kts
13-Jan-21 13:45 32.991673 -115.496840 263 289ft 83kts
13-Jan-21 13:46 32.992937 -115.515733 269 -126ft 24kts
13-Jan-21 13:47 32.992488 -115.517617 265 -125ft 1kts
13-Jan-21 13:48 32.992232 -115.518694 179 -125ft 5kts

Navigation Log

Ident Type
Flight plan parsing failed, navigation log unavailable